createdAt,value
2019-06-10T00:01:36.880Z,29.50
2019-06-10T00:04:08.701Z,29.50
2019-06-10T00:06:38.033Z,29.60
2019-06-10T00:09:11.553Z,29.60
2019-06-10T00:11:41.104Z,29.50
2019-06-10T00:14:11.099Z,29.60
2019-06-10T00:16:41.564Z,29.60
2019-06-10T00:19:12.719Z,29.50
2019-06-10T00:21:42.497Z,29.60
2019-06-10T00:24:12.015Z,29.50
2019-06-10T00:26:41.599Z,29.40
2019-06-10T00:29:11.925Z,29.40
2019-06-10T00:31:41.863Z,29.30
2019-06-10T00:34:12.343Z,29.30
2019-06-10T00:36:42.314Z,29.30
2019-06-10T00:39:13.556Z,29.20
2019-06-10T00:41:43.332Z,29.30
2019-06-10T00:44:13.076Z,29.30
2019-06-10T00:46:42.861Z,29.20
2019-06-10T00:49:14.549Z,29.30
2019-06-10T00:51:43.839Z,29.30
2019-06-10T00:54:15.423Z,29.30
2019-06-10T00:56:44.537Z,29.20
2019-06-10T00:59:15.374Z,29.20
2019-06-10T01:01:45.324Z,29.10
2019-06-10T01:04:16.286Z,29.20
2019-06-10T01:06:46.323Z,29.20
2019-06-10T01:09:15.917Z,29.10
2019-06-10T01:11:45.580Z,29.20
2019-06-10T01:14:15.533Z,29.20
2019-06-10T01:16:45.360Z,29.20
2019-06-10T01:19:15.825Z,29.20
2019-06-10T01:21:45.627Z,29.00
2019-06-10T01:24:15.513Z,28.90
2019-06-10T01:26:45.154Z,28.90
2019-06-10T01:29:15.602Z,29.10
2019-06-10T01:31:45.468Z,29.10
2019-06-10T01:34:15.207Z,28.90
2019-06-10T01:36:45.091Z,29.00
2019-06-10T01:39:16.407Z,28.90
2019-06-10T01:41:46.770Z,28.90
2019-06-10T01:44:17.679Z,28.80
2019-06-10T01:46:47.388Z,28.90
2019-06-10T01:49:18.161Z,28.90
2019-06-10T01:51:48.020Z,28.90
2019-06-10T01:54:18.435Z,28.70
2019-06-10T01:56:48.167Z,28.90
2019-06-10T01:59:18.695Z,28.70
2019-06-10T02:02:09.168Z,27.40
2019-06-10T02:04:41.141Z,28.10
2019-06-10T02:07:12.092Z,28.70
2019-06-10T02:09:41.537Z,28.80
2019-06-10T02:12:12.759Z,28.80
2019-06-10T02:14:43.096Z,28.80
2019-06-10T02:17:15.871Z,28.70
2019-06-10T02:22:03.955Z,28.70
2019-06-10T02:24:33.619Z,28.80
2019-06-10T02:27:03.326Z,28.80
2019-06-10T02:29:32.877Z,28.80
2019-06-10T02:32:04.813Z,28.60
2019-06-10T02:34:39.230Z,28.80
2019-06-10T02:37:05.164Z,28.90
2019-06-10T02:39:38.953Z,29.10
2019-06-10T02:42:13.666Z,29.00
2019-06-10T02:44:44.541Z,28.90
2019-06-10T02:47:19.167Z,28.70
2019-06-10T02:49:57.152Z,28.60
2019-06-10T02:52:24.655Z,28.60
2019-06-10T02:54:53.526Z,28.30
2019-06-10T02:57:29.669Z,28.50
2019-06-10T02:59:54.500Z,28.60
2019-06-10T03:02:30.827Z,28.50
2019-06-10T03:04:55.867Z,28.60
2019-06-10T03:07:28.713Z,28.50
2019-06-10T03:09:56.656Z,28.60
2019-06-10T03:12:26.279Z,28.60
2019-06-10T03:14:55.862Z,28.70
2019-06-10T03:17:28.149Z,28.50
2019-06-10T03:19:57.889Z,28.50
2019-06-10T03:22:28.456Z,28.50
2019-06-10T03:24:58.267Z,28.30
2019-06-10T03:27:28.066Z,28.40
2019-06-10T03:29:57.689Z,26.90
2019-06-10T03:32:33.297Z,27.80
2019-06-10T03:34:58.621Z,28.20
2019-06-10T03:37:28.259Z,28.30
2019-06-10T03:39:57.873Z,27.80
2019-06-10T03:42:28.217Z,28.00
2019-06-10T03:44:57.969Z,28.20
2019-06-10T03:47:28.826Z,28.40
2019-06-10T03:49:58.506Z,28.40
2019-06-10T03:52:28.524Z,28.30
2019-06-10T03:54:58.298Z,28.40
2019-06-10T03:57:28.690Z,26.20
2019-06-10T03:59:58.398Z,26.70
2019-06-10T04:02:28.514Z,27.90
2019-06-10T04:04:58.352Z,28.10
2019-06-10T04:07:30.957Z,27.00
2019-06-10T04:09:59.320Z,28.00
2019-06-10T04:12:29.171Z,28.40
2019-06-10T04:14:59.058Z,28.30
2019-06-10T04:17:28.911Z,28.50
2019-06-10T04:20:09.273Z,28.30
2019-06-10T04:22:30.019Z,28.30
2019-06-10T04:24:59.703Z,28.30
2019-06-10T04:27:29.238Z,28.30
2019-06-10T04:29:59.081Z,28.30
2019-06-10T04:32:29.103Z,28.40
2019-06-10T04:34:58.761Z,28.50
2019-06-10T04:37:29.501Z,28.30
2019-06-10T04:39:59.240Z,28.30
2019-06-10T04:42:29.073Z,28.40
2019-06-10T04:44:58.633Z,28.30
2019-06-10T04:47:29.557Z,28.40
2019-06-10T04:49:59.394Z,28.10
2019-06-10T04:52:29.784Z,28.30
2019-06-10T04:55:02.500Z,28.30
2019-06-10T04:57:32.719Z,28.20
2019-06-10T05:00:10.659Z,28.20
2019-06-10T05:02:33.972Z,28.30
2019-06-10T05:05:03.807Z,28.30
2019-06-10T05:07:36.806Z,28.30
2019-06-10T05:10:05.538Z,28.20
2019-06-10T05:12:35.190Z,28.20
2019-06-10T05:15:05.395Z,28.30
2019-06-10T05:17:35.116Z,28.20
2019-06-10T05:20:05.742Z,28.20
2019-06-10T05:22:35.174Z,28.30
2019-06-10T05:25:05.448Z,28.20
2019-06-10T05:27:35.192Z,28.20
2019-06-10T05:30:05.778Z,28.20
2019-06-10T05:32:35.500Z,28.00
2019-06-10T05:35:05.856Z,28.20
2019-06-10T05:37:35.371Z,25.90
2019-06-10T05:40:06.076Z,26.50
2019-06-10T05:42:36.049Z,27.50
2019-06-10T05:45:07.390Z,28.10
2019-06-10T05:47:37.388Z,28.20
2019-06-10T05:50:07.260Z,28.40
2019-06-10T05:52:36.875Z,28.30
2019-06-10T05:55:06.650Z,28.30
2019-06-10T05:57:36.229Z,28.30
2019-06-10T06:00:14.017Z,28.40
2019-06-10T06:02:39.483Z,28.10
2019-06-10T06:05:09.562Z,27.90
2019-06-10T06:07:39.006Z,28.00
2019-06-10T06:10:09.292Z,28.00
2019-06-10T06:12:38.795Z,27.90
2019-06-10T06:15:08.977Z,27.90
2019-06-10T06:17:38.665Z,27.70
2019-06-10T06:20:09.575Z,27.70
2019-06-10T06:22:39.199Z,27.90
2019-06-10T06:25:09.704Z,27.90
2019-06-10T06:27:39.339Z,27.90
2019-06-10T06:30:13.698Z,27.80
2019-06-10T06:32:40.478Z,27.80
2019-06-10T06:35:12.519Z,27.80
2019-06-10T06:37:42.783Z,28.00
2019-06-10T06:40:13.322Z,28.00
2019-06-10T06:42:43.470Z,27.90
2019-06-10T06:45:13.568Z,27.80
2019-06-10T06:47:43.766Z,27.80
2019-06-10T06:50:13.740Z,27.60
2019-06-10T06:53:15.741Z,27.90
2019-06-10T06:55:15.060Z,27.90
2019-06-10T06:57:44.715Z,27.90
2019-06-10T07:00:35.354Z,27.90
2019-06-10T07:02:46.124Z,27.70
2019-06-10T07:05:16.076Z,27.80
2019-06-10T07:07:46.081Z,27.80
2019-06-10T07:10:15.764Z,27.50
2019-06-10T07:12:45.850Z,27.60
2019-06-10T07:15:15.689Z,27.70
2019-06-10T07:17:45.880Z,27.60
2019-06-10T07:20:15.962Z,27.60
2019-06-10T07:22:46.720Z,27.90
2019-06-10T07:25:16.498Z,27.70
2019-06-10T07:27:47.040Z,27.70
2019-06-10T07:30:16.840Z,27.70
2019-06-10T07:32:47.471Z,27.70
2019-06-10T07:35:17.181Z,27.70
2019-06-10T07:37:46.637Z,27.60
2019-06-10T07:40:16.366Z,25.00
2019-06-10T07:42:45.915Z,26.90
2019-06-10T07:45:16.039Z,27.60
2019-06-10T07:47:45.805Z,27.70
2019-06-10T07:50:16.058Z,27.80
2019-06-10T07:52:46.860Z,27.60
2019-06-10T07:55:17.125Z,27.70
2019-06-10T07:57:46.849Z,27.90
2019-06-10T08:00:17.094Z,27.90
2019-06-10T08:02:46.837Z,27.80
2019-06-10T08:05:17.103Z,27.90
2019-06-10T08:07:48.644Z,27.90
2019-06-10T08:10:17.909Z,28.00
2019-06-10T08:12:48.427Z,27.80
2019-06-10T08:15:17.848Z,28.10
2019-06-10T08:17:48.228Z,27.90
2019-06-10T08:20:37.056Z,28.00
2019-06-10T08:23:06.597Z,28.00
2019-06-10T08:25:36.792Z,27.70
2019-06-10T08:28:06.506Z,28.10
2019-06-10T08:30:36.126Z,28.30
2019-06-10T08:33:05.880Z,28.00
2019-06-10T08:35:43.952Z,28.10
2019-06-10T08:38:06.466Z,28.30
2019-06-10T08:40:36.374Z,28.20
2019-06-10T08:43:06.289Z,28.20
2019-06-10T08:45:36.872Z,28.40
2019-06-10T08:48:06.984Z,28.30
2019-06-10T08:50:37.630Z,28.30
2019-06-10T08:53:14.757Z,28.20
2019-06-10T08:55:39.669Z,28.40
2019-06-10T08:58:09.220Z,28.20
2019-06-10T09:00:40.427Z,28.10
2019-06-10T09:03:12.398Z,28.20
2019-06-10T09:05:46.067Z,28.20
2019-06-10T09:08:13.139Z,28.30
2019-06-10T09:10:47.393Z,28.30
2019-06-10T09:13:14.353Z,28.30
2019-06-10T09:15:47.537Z,28.10
2019-06-10T09:18:19.709Z,28.20
2019-06-10T09:20:52.388Z,27.70
2019-06-10T09:23:22.492Z,28.20
2019-06-10T09:25:49.563Z,28.60
2019-06-10T09:28:19.960Z,28.60
2019-06-10T09:30:56.170Z,27.70
2019-06-10T09:33:22.584Z,28.40
2019-06-10T09:35:54.850Z,28.50
2019-06-10T09:38:23.005Z,28.10
2019-06-10T09:41:00.867Z,28.30
2019-06-10T09:43:25.146Z,28.70
2019-06-10T09:45:56.532Z,28.70
2019-06-10T09:48:26.615Z,28.80
2019-06-10T09:50:58.766Z,28.60
2019-06-10T09:53:41.454Z,29.00
2019-06-10T09:55:59.054Z,28.40
2019-06-10T09:58:28.784Z,28.30
2019-06-10T10:00:59.667Z,27.80
2019-06-10T10:03:32.581Z,28.10
2019-06-10T10:06:13.658Z,27.60
2019-06-10T10:08:32.863Z,28.80
2019-06-10T10:11:03.249Z,29.10
2019-06-10T10:13:35.396Z,29.30
2019-06-10T10:16:04.558Z,29.00
2019-06-10T10:18:34.385Z,29.40
2019-06-10T10:21:04.473Z,29.70
2019-06-10T10:23:50.434Z,29.70
2019-06-10T10:26:06.024Z,29.60
2019-06-10T10:28:35.831Z,28.80
2019-06-10T10:31:05.233Z,29.30
2019-06-10T10:33:35.378Z,28.50
2019-06-10T10:36:05.011Z,28.60
2019-06-10T10:38:35.045Z,29.10
2019-06-10T10:41:05.052Z,29.50
2019-06-10T10:43:37.770Z,29.70
2019-06-10T10:46:06.432Z,29.80
2019-06-10T10:48:36.263Z,29.00
2019-06-10T10:51:05.826Z,29.10
2019-06-10T10:53:35.710Z,29.80
2019-06-10T10:56:05.305Z,29.60
2019-06-10T10:58:34.816Z,29.40
2019-06-10T11:01:04.990Z,29.80
2019-06-10T11:03:34.754Z,29.40
2019-06-10T11:06:04.545Z,29.20
2019-06-10T11:08:34.232Z,29.60
2019-06-10T11:11:05.721Z,29.90
2019-06-10T11:13:37.253Z,30.00
2019-06-10T11:16:07.165Z,29.00
2019-06-10T11:18:37.027Z,28.80
2019-06-10T11:21:06.839Z,29.60
2019-06-10T11:23:36.743Z,29.70
2019-06-10T11:26:06.506Z,30.00
2019-06-10T11:28:36.116Z,30.10
2019-06-10T11:31:05.852Z,30.00
2019-06-10T11:33:35.607Z,29.40
2019-06-10T11:36:05.337Z,29.80
2019-06-10T11:38:34.904Z,30.20
2019-06-10T11:41:04.476Z,30.30
2019-06-10T11:43:34.132Z,30.00
2019-06-10T11:46:07.525Z,29.60
2019-06-10T11:48:35.277Z,29.80
2019-06-10T11:51:05.022Z,30.20
2019-06-10T11:53:35.176Z,30.30
2019-06-10T11:56:05.083Z,29.60
2019-06-10T11:58:34.743Z,30.00
2019-06-10T12:01:04.369Z,30.10
2019-06-10T12:03:34.573Z,30.40
2019-06-10T12:06:05.353Z,29.90
2019-06-10T12:08:35.355Z,30.10
2019-06-10T12:11:05.123Z,30.40
2019-06-10T12:13:34.991Z,30.20
2019-06-10T12:16:51.441Z,29.80
2019-06-10T12:18:36.115Z,30.20
2019-06-10T12:21:05.877Z,30.10
2019-06-10T12:23:35.495Z,29.50
2019-06-10T12:26:05.464Z,29.90
2019-06-10T12:28:35.532Z,29.30
2019-06-10T12:31:07.236Z,29.70
2019-06-10T12:33:36.490Z,30.20
2019-06-10T12:36:07.379Z,29.20
2019-06-10T12:38:37.452Z,28.30
2019-06-10T12:41:10.063Z,27.60
2019-06-10T12:43:38.366Z,27.10
2019-06-10T12:46:07.893Z,27.70
2019-06-10T12:48:37.461Z,27.90
2019-06-10T12:51:09.452Z,27.60
2019-06-10T12:53:38.297Z,28.30
2019-06-10T12:56:10.957Z,29.70
2019-06-10T12:58:39.275Z,29.20
2019-06-10T13:01:08.765Z,29.70
2019-06-10T13:03:38.511Z,27.60
2019-06-10T13:06:09.840Z,29.00
2019-06-10T13:08:42.245Z,28.70
2019-06-10T13:11:13.218Z,30.20
2019-06-10T13:13:42.689Z,30.10
2019-06-10T13:16:14.187Z,29.20
2019-06-10T13:18:43.792Z,29.80
2019-06-10T13:21:17.397Z,29.90
2019-06-10T13:23:44.596Z,29.90
2019-06-10T13:26:16.615Z,29.80
2019-06-10T13:28:45.532Z,28.90
2019-06-10T13:31:15.037Z,30.10
2019-06-10T13:33:45.698Z,30.30
2019-06-10T13:36:15.354Z,31.10
2019-06-10T13:38:45.013Z,31.20
2019-06-10T13:41:14.696Z,29.40
2019-06-10T13:43:44.306Z,30.60
2019-06-10T13:46:13.791Z,30.70
2019-06-10T13:48:43.427Z,28.70
2019-06-10T13:51:15.484Z,30.30
2019-06-10T13:53:46.258Z,30.30
2019-06-10T13:56:37.699Z,30.30
2019-06-10T13:58:47.081Z,30.80
2019-06-10T14:01:21.617Z,30.90
2019-06-10T14:03:48.092Z,31.00
2019-06-10T14:06:37.436Z,30.70
2019-06-10T14:08:48.899Z,30.10
2019-06-10T14:11:19.075Z,29.60
2019-06-10T14:13:48.777Z,28.90
2019-06-10T14:16:18.280Z,29.90
2019-06-10T14:18:47.777Z,29.60
2019-06-10T14:21:18.404Z,28.50
2019-06-10T14:23:48.305Z,27.90
2019-06-10T14:26:31.226Z,28.30
2019-06-10T14:28:49.245Z,30.10
2019-06-10T14:31:38.578Z,31.10
2019-06-10T14:33:50.231Z,31.00
2019-06-10T14:36:22.130Z,29.60
2019-06-10T14:38:51.467Z,28.70
2019-06-10T14:41:23.080Z,30.60
2019-06-10T14:43:53.109Z,31.30
2019-06-10T14:46:23.189Z,29.60
2019-06-10T14:48:53.252Z,29.90
2019-06-10T14:51:23.145Z,30.70
2019-06-10T14:53:52.712Z,29.80
2019-06-10T14:56:23.414Z,30.50
2019-06-10T14:58:53.410Z,30.90
2019-06-10T15:01:25.643Z,31.20
2019-06-10T15:03:54.521Z,31.20
2019-06-10T15:06:23.994Z,31.10
2019-06-10T15:08:53.618Z,31.40
2019-06-10T15:11:25.415Z,31.30
2019-06-10T15:13:54.395Z,31.00
2019-06-10T15:16:24.240Z,31.30
2019-06-10T15:18:54.014Z,31.60
2019-06-10T15:21:23.788Z,31.60
2019-06-10T15:23:53.502Z,31.20
2019-06-10T15:26:23.138Z,31.40
2019-06-10T15:28:52.795Z,31.20
2019-06-10T15:31:22.384Z,31.30
2019-06-10T15:33:52.435Z,31.50
2019-06-10T15:36:22.263Z,31.30
2019-06-10T15:38:52.587Z,30.90
2019-06-10T15:41:24.652Z,30.70
2019-06-10T15:43:53.783Z,30.70
2019-06-10T15:46:23.368Z,31.70
2019-06-10T15:48:54.173Z,32.00
2019-06-10T15:51:26.024Z,31.40
2019-06-10T15:53:55.393Z,30.90
2019-06-10T15:56:37.560Z,30.80
2019-06-10T15:58:56.249Z,30.30
2019-06-10T16:01:27.420Z,24.40
2019-06-10T16:03:57.134Z,26.30
2019-06-10T16:06:26.643Z,28.90
2019-06-10T16:08:56.315Z,28.60
2019-06-10T16:11:27.397Z,29.70
2019-06-10T16:13:56.955Z,30.20
2019-06-10T16:16:26.390Z,30.20
2019-06-10T16:18:56.140Z,30.10
2019-06-10T16:21:25.708Z,30.30
2019-06-10T16:23:58.972Z,30.20
2019-06-10T16:26:28.694Z,30.20
2019-06-10T16:28:58.439Z,30.00
2019-06-10T16:31:27.975Z,29.80
2019-06-10T16:33:57.577Z,29.90
2019-06-10T16:36:27.992Z,29.70
2019-06-10T16:38:58.444Z,29.60
2019-06-10T16:41:32.444Z,29.60
2019-06-10T16:44:02.972Z,29.50
2019-06-10T16:46:32.788Z,29.50
2019-06-10T16:49:03.261Z,29.50
2019-06-10T16:51:33.365Z,29.40
2019-06-10T16:54:02.918Z,29.30
2019-06-10T16:56:33.668Z,29.20
2019-06-10T16:59:03.509Z,29.30
2019-06-10T17:01:33.422Z,29.20
2019-06-10T17:04:19.270Z,29.10
2019-06-10T17:07:13.889Z,29.10
2019-06-10T17:09:44.019Z,29.10
2019-06-10T17:12:32.995Z,29.00
2019-06-10T17:15:03.431Z,29.00
2019-06-10T17:17:33.099Z,28.90
2019-06-10T17:20:13.125Z,28.80
2019-06-10T17:22:48.043Z,28.90
2019-06-10T17:25:17.506Z,28.90
2019-06-10T17:27:52.604Z,28.80
2019-06-10T17:30:24.757Z,28.80
2019-06-10T17:32:53.470Z,28.70
2019-06-10T17:35:24.071Z,28.60
2019-06-10T17:37:53.617Z,28.60
2019-06-10T17:40:24.928Z,28.50
2019-06-10T17:42:54.365Z,28.50
2019-06-10T17:45:26.184Z,28.50
2019-06-10T17:47:55.742Z,28.50
2019-06-10T17:50:26.519Z,28.50
2019-06-10T17:52:56.443Z,28.40
2019-06-10T17:55:27.610Z,28.40
2019-06-10T17:57:57.202Z,28.30
2019-06-10T18:00:27.862Z,28.30
2019-06-10T18:02:58.627Z,28.30
2019-06-10T18:05:29.316Z,28.30
2019-06-10T18:07:58.896Z,28.30
2019-06-10T18:10:29.720Z,28.30
2019-06-10T18:13:12.686Z,28.50
2019-06-10T18:15:34.267Z,28.20
2019-06-10T18:18:03.483Z,28.20
2019-06-10T18:20:33.980Z,28.20
2019-06-10T18:23:04.235Z,28.30
2019-06-10T18:25:36.416Z,28.20
2019-06-10T18:28:05.209Z,28.10
2019-06-10T18:30:37.595Z,28.10
2019-06-10T18:33:06.146Z,28.00
2019-06-10T18:35:37.566Z,28.00
2019-06-10T18:38:07.328Z,28.00
2019-06-10T18:40:37.041Z,28.00
2019-06-10T18:43:06.936Z,27.90
2019-06-10T18:45:38.450Z,27.90
2019-06-10T18:48:07.764Z,27.90
2019-06-10T18:50:38.306Z,27.90
2019-06-10T18:53:08.697Z,27.80
2019-06-10T18:55:40.600Z,27.60
2019-06-10T18:58:09.648Z,27.70
2019-06-10T19:00:54.628Z,27.80
2019-06-10T19:03:15.936Z,27.70
2019-06-10T19:05:42.163Z,27.60
2019-06-10T19:08:11.946Z,27.70
2019-06-10T19:10:43.210Z,27.50
2019-06-10T19:13:13.088Z,27.50
2019-06-10T19:15:42.713Z,27.60
2019-06-10T19:18:15.407Z,27.60
2019-06-10T19:20:45.323Z,27.60
2019-06-10T19:23:16.526Z,27.60
2019-06-10T19:25:46.239Z,27.50
2019-06-10T19:28:15.678Z,27.50
2019-06-10T19:30:45.153Z,27.70
2019-06-10T19:33:14.794Z,27.60
2019-06-10T19:35:44.402Z,27.60
2019-06-10T19:38:14.164Z,27.50
2019-06-10T19:40:44.108Z,27.30
2019-06-10T19:43:13.851Z,27.40
2019-06-10T19:45:44.479Z,27.30
2019-06-10T19:48:14.202Z,27.40
2019-06-10T19:50:49.776Z,27.40
2019-06-10T19:53:15.158Z,27.40
2019-06-10T19:55:46.117Z,27.30
2019-06-10T19:58:15.726Z,27.30
2019-06-10T20:00:50.741Z,27.30
2019-06-10T20:03:17.116Z,27.20
2019-06-10T20:05:47.341Z,27.20
2019-06-10T20:08:16.980Z,27.20
2019-06-10T20:10:46.617Z,27.20
2019-06-10T20:13:16.231Z,27.20
2019-06-10T20:15:47.090Z,27.20
2019-06-10T20:18:17.231Z,27.20
2019-06-10T20:20:47.628Z,27.20
2019-06-10T20:23:18.126Z,27.10
2019-06-10T20:25:52.731Z,27.10
2019-06-10T20:28:24.941Z,27.00
2019-06-10T20:30:54.450Z,27.10
2019-06-10T20:33:36.434Z,27.00
2019-06-10T20:36:07.558Z,27.10
2019-06-10T20:38:35.255Z,27.10
2019-06-10T20:41:04.839Z,27.00
2019-06-10T20:43:34.354Z,26.90
2019-06-10T20:46:05.926Z,27.10
2019-06-10T20:48:34.997Z,27.10
2019-06-10T20:51:04.454Z,27.00
2019-06-10T20:53:34.141Z,27.10
2019-06-10T20:56:04.086Z,27.10
2019-06-10T20:58:33.516Z,27.00
2019-06-10T21:01:04.633Z,27.00
2019-06-10T21:03:34.696Z,27.00
2019-06-10T21:06:04.690Z,26.90
2019-06-10T21:08:34.593Z,26.80
2019-06-10T21:11:04.237Z,26.80
2019-06-10T21:13:34.053Z,26.80
2019-06-10T21:16:04.065Z,26.80
2019-06-10T21:18:33.910Z,26.80
2019-06-10T21:21:03.494Z,26.80
2019-06-10T21:23:33.030Z,26.80
2019-06-10T21:26:03.140Z,26.80
2019-06-10T21:28:33.095Z,26.80
2019-06-10T21:31:03.060Z,26.80
2019-06-10T21:33:33.391Z,26.80
2019-06-10T21:36:04.029Z,26.80
2019-06-10T21:38:33.846Z,26.70
2019-06-10T21:41:03.545Z,26.70
2019-06-10T21:43:33.564Z,26.60
2019-06-10T21:46:03.869Z,26.60
2019-06-10T21:48:33.635Z,26.60
2019-06-10T21:51:03.167Z,26.60
2019-06-10T21:53:32.764Z,26.60
2019-06-10T21:56:02.338Z,26.60
2019-06-10T21:58:32.833Z,26.50
2019-06-10T22:01:13.033Z,26.70
2019-06-10T22:03:38.391Z,26.50
2019-06-10T22:06:08.043Z,26.60
2019-06-10T22:08:37.750Z,26.60
2019-06-10T22:11:07.474Z,26.60
2019-06-10T22:13:37.080Z,26.60
2019-06-10T22:16:06.702Z,26.50
2019-06-10T22:18:36.543Z,26.50
2019-06-10T22:21:06.119Z,26.60
2019-06-10T22:23:35.804Z,26.40
2019-06-10T22:26:05.287Z,26.50
2019-06-10T22:28:34.920Z,26.50
2019-06-10T22:31:18.038Z,26.50
2019-06-10T22:33:35.898Z,26.40
2019-06-10T22:36:05.442Z,26.50
2019-06-10T22:38:35.279Z,26.40
2019-06-10T22:41:05.041Z,26.50
2019-06-10T22:43:34.654Z,26.40
2019-06-10T22:46:04.281Z,26.30
2019-06-10T22:48:33.955Z,26.10
2019-06-10T22:51:03.625Z,26.20
2019-06-10T22:53:33.443Z,26.30
2019-06-10T22:56:03.233Z,26.20
2019-06-10T22:58:32.896Z,26.30
2019-06-10T23:01:04.317Z,26.20
2019-06-10T23:03:33.605Z,26.20
2019-06-10T23:06:03.323Z,26.20
2019-06-10T23:08:33.399Z,26.30
2019-06-10T23:11:03.249Z,26.30
2019-06-10T23:13:32.990Z,26.20
2019-06-10T23:16:02.888Z,26.30
2019-06-10T23:18:32.489Z,26.10
2019-06-10T23:21:04.442Z,26.20
2019-06-10T23:23:33.483Z,26.30
2019-06-10T23:26:03.135Z,26.30
2019-06-10T23:28:32.805Z,26.10
2019-06-10T23:31:04.954Z,26.10
2019-06-10T23:33:33.692Z,26.20
2019-06-10T23:36:04.047Z,26.30
2019-06-10T23:38:33.896Z,26.20
2019-06-10T23:41:03.881Z,26.30
2019-06-10T23:43:33.627Z,26.30
2019-06-10T23:46:04.364Z,26.20
2019-06-10T23:48:34.146Z,26.10
2019-06-10T23:51:05.031Z,26.20
2019-06-10T23:53:34.663Z,26.20
2019-06-10T23:56:05.036Z,26.10
2019-06-10T23:58:34.853Z,26.20
